Time;durP1;ratioP1;P1;durP2;ratioP2;P2;SDS_P1;SDS_P2;PMS_P1;PMS_P2;Temp;Humidity;BMP_temperature;BMP_pressure;BME280_temperature;BME280_humidity;BME280_pressure;Samples;Min_cycle;Max_cycle;Signal;HPM_P1;HPM_P2
2022/01/31 00:00:42;;;;;;;45.70;6.05;;;;;;;3.36;66.48;100191.63;5014887;28;20045;-86
2022/01/31 00:03:16;;;;;;;43.30;6.20;;;;;;;3.38;66.43;100176.88;5014718;28;20458;-86
2022/01/31 00:05:42;;;;;;;48.47;5.45;;;;;;;3.42;66.38;100168.06;5031597;28;20048;-87
2022/01/31 00:08:07;;;;;;;52.42;5.72;;;;;;;3.41;66.05;100150.81;5031076;28;20033;-86
2022/01/31 00:10:35;;;;;;;44.22;5.78;;;;;;;3.43;65.84;100143.00;5031170;28;20041;-87
2022/01/31 00:13:05;;;;;;;58.63;5.43;;;;;;;3.45;65.96;100138.56;5004668;28;20029;-87
2022/01/31 00:15:42;;;;;;;58.20;7.03;;;;;;;3.47;64.69;100132.44;5009364;28;20061;-86
2022/01/31 00:18:16;;;;;;;54.40;7.85;;;;;;;3.48;64.43;100125.50;5038579;28;20033;-86
2022/01/31 00:20:52;;;;;;;52.42;5.82;;;;;;;3.47;64.44;100126.41;5029421;28;20380;-87
2022/01/31 00:23:31;;;;;;;49.38;5.35;;;;;;;3.47;63.91;100122.06;5051582;28;20040;-86
2022/01/31 00:26:05;;;;;;;48.35;6.45;;;;;;;3.48;63.95;100113.38;5052117;28;20033;-87
2022/01/31 00:28:37;;;;;;;54.47;6.20;;;;;;;3.50;64.04;100097.78;5046317;28;20036;-85
2022/01/31 00:31:20;;;;;;;;;;;;;;;;;;;;;
2022/01/31 00:33:57;;;;;;;50.65;6.07;;;;;;;3.49;64.32;100062.41;5057574;28;20115;-86
2022/01/31 00:36:27;;;;;;;63.60;5.50;;;;;;;3.46;64.52;100053.00;5013849;28;20037;-87
2022/01/31 00:38:53;;;;;;;57.45;6.07;;;;;;;3.45;64.99;100040.97;5060322;28;20115;-86
2022/01/31 00:41:30;;;;;;;66.32;7.53;;;;;;;3.42;65.63;100041.09;5073150;28;20032;-86
2022/01/31 00:44:16;;;;;;;54.70;6.85;;;;;;;3.38;66.16;100024.81;5069331;28;20025;-88
2022/01/31 00:47:15;;;;;;;;;;;;;;;;;;;;;
2022/01/31 00:49:42;;;;;;;64.88;6.80;;;;;;;3.33;66.73;99998.22;5058271;28;20033;-88
2022/01/31 00:52:16;;;;;;;48.78;7.03;;;;;;;3.33;67.10;99992.22;5043019;28;20534;-86
2022/01/31 00:54:44;;;;;;;77.32;7.53;;;;;;;3.29;66.01;99973.38;5052514;28;20055;-87
2022/01/31 00:57:16;;;;;;;62.33;6.85;;;;;;;3.29;66.20;99963.00;5052872;28;20056;-88
2022/01/31 00:59:42;;;;;;;52.20;6.20;;;;;;;3.29;65.97;99956.97;5038964;28;20033;-87
2022/01/31 01:02:09;;;;;;;46.50;6.00;;;;;;;3.30;65.66;99958.66;5031832;28;20048;-87
2022/01/31 01:04:35;;;;;;;51.90;7.68;;;;;;;3.30;65.54;99961.25;5032770;28;20034;-87
2022/01/31 01:07:01;;;;;;;38.75;4.78;;;;;;;3.31;65.61;99968.13;5048744;28;20025;-87
2022/01/31 01:09:26;;;;;;;43.92;5.28;;;;;;;3.29;65.44;99962.16;5053335;28;20021;-87
2022/01/31 01:11:52;;;;;;;56.47;7.05;;;;;;;3.29;65.50;99949.19;5053732;28;20401;-87
2022/01/31 01:14:26;;;;;;;60.92;6.68;;;;;;;3.27;65.91;99933.75;5054546;28;20052;-85
2022/01/31 01:16:58;;;;;;;49.13;5.57;;;;;;;3.28;65.72;99934.56;5049150;28;20036;-86
2022/01/31 01:19:40;;;;;;;51.90;6.15;;;;;;;3.25;65.95;99929.50;5058256;28;20098;-86
2022/01/31 01:22:13;;;;;;;52.30;5.55;;;;;;;3.21;66.57;99908.06;5054950;28;20021;-86
2022/01/31 01:25:04;;;;;;;66.22;7.63;;;;;;;3.18;66.27;99908.22;5055080;28;20053;-88
2022/01/31 01:27:47;;;;;;;60.58;7.10;;;;;;;3.14;67.02;99901.47;5054510;28;20082;-86
2022/01/31 01:30:22;;;;;;;47.60;4.97;;;;;;;3.11;67.00;99881.72;5018237;28;20597;-86
2022/01/31 01:35:21;;;;;;;63.40;6.45;;;;;;;3.07;67.70;99884.50;5053976;28;20036;-86
2022/01/31 01:37:58;;;;;;;52.42;6.07;;;;;;;3.00;67.97;99870.97;5053464;28;20041;-85
2022/01/31 01:40:26;;;;;;;43.78;5.30;;;;;;;2.97;68.43;99863.34;5053593;28;20454;-87
2022/01/31 01:43:04;;;;;;;65.35;5.20;;;;;;;2.97;68.33;99858.19;5051840;28;20358;-86
2022/01/31 01:45:37;;;;;;;57.10;5.68;;;;;;;2.96;68.73;99858.22;5044867;28;20021;-87
2022/01/31 01:48:12;;;;;;;;;;;;;;;;;;;;;
2022/01/31 01:50:40;;;;;;;64.05;6.07;;;;;;;2.92;68.45;99841.97;5055468;28;20123;-87
2022/01/31 01:53:07;;;;;;;55.03;6.35;;;;;;;2.91;69.31;99837.72;5057465;28;20088;-87
2022/01/31 01:55:33;;;;;;;59.33;6.38;;;;;;;2.88;68.98;99819.72;5055426;28;20039;-86
2022/01/31 01:58:04;;;;;;;47.80;7.28;;;;;;;2.86;69.50;99809.44;5056547;28;20104;-87
2022/01/31 02:00:58;;;;;;;49.47;7.18;;;;;;;2.82;69.53;99794.09;5057224;28;20028;-86
2022/01/31 02:03:18;;;;;;;46.08;5.22;;;;;;;2.84;68.99;99794.88;5054847;28;20456;-87
2022/01/31 02:05:44;;;;;;;52.45;5.68;;;;;;;2.85;68.88;99775.81;5056517;28;20434;-87
2022/01/31 02:08:13;;;;;;;67.07;7.10;;;;;;;2.87;68.84;99771.44;5055147;28;20037;-86
2022/01/31 02:10:39;;;;;;;;;;;;;;;2.88;69.07;99758.41;5048863;28;20056;-87
2022/01/31 02:13:07;;;;;;;55.60;5.35;;;;;;;2.87;69.54;99742.97;5034627;28;19909;-86
2022/01/31 02:15:33;;;;;;;52.00;5.57;;;;;;;2.84;69.34;99737.91;5037354;28;20029;-87
2022/01/31 02:18:01;;;;;;;63.72;7.82;;;;;;;2.82;69.54;99735.41;5052245;28;20179;-85
2022/01/31 02:20:41;;;;;;;54.25;7.20;;;;;;;2.81;69.81;99748.38;5043405;28;20041;-87
2022/01/31 02:23:08;;;;;;;48.30;7.15;;;;;;;2.83;69.67;99742.25;5051120;28;20064;-86
2022/01/31 02:25:55;;;;;;;55.70;6.00;;;;;;;2.86;69.35;99743.88;5041463;28;20132;-86
2022/01/31 02:28:22;;;;;;;80.78;9.05;;;;;;;2.87;69.28;99737.78;5040834;28;20500;-85
2022/01/31 02:30:47;;;;;;;57.20;6.55;;;;;;;2.90;69.01;99735.91;5071348;28;20053;-86
2022/01/31 02:33:16;;;;;;;60.42;8.02;;;;;;;2.90;69.04;99729.88;5053672;28;20166;-86
2022/01/31 02:35:42;;;;;;;47.70;7.30;;;;;;;2.91;69.42;99708.25;5055102;28;20498;-86
2022/01/31 02:38:10;;;;;;;71.75;6.90;;;;;;;2.92;69.47;99710.75;5058388;28;20096;-86
2022/01/31 02:40:36;;;;;;;67.20;6.60;;;;;;;2.92;69.69;99699.56;5054003;28;20112;-87
2022/01/31 02:43:11;;;;;;;62.05;7.25;;;;;;;2.92;69.72;99699.56;5070423;28;20035;-87
2022/01/31 02:45:44;;;;;;;65.05;7.80;;;;;;;2.92;69.92;99679.69;5071207;28;20013;-87
2022/01/31 02:48:11;;;;;;;58.53;6.82;;;;;;;2.91;70.18;99670.25;5043569;28;20065;-85
2022/01/31 02:50:40;;;;;;;30.15;5.13;;;;;;;2.89;70.48;99666.91;5047060;28;20040;-86
2022/01/31 02:53:25;;;;;;;61.13;7.82;;;;;;;2.88;70.46;99667.78;5056669;28;20033;-86
2022/01/31 02:55:55;;;;;;;53.15;6.55;;;;;;;2.90;69.58;99663.41;5054326;28;20033;-86
2022/01/31 02:58:30;;;;;;;58.00;7.55;;;;;;;2.90;69.74;99658.22;5055013;28;20024;-87
2022/01/31 03:01:01;;;;;;;61.40;8.50;;;;;;;2.92;70.14;99656.38;5054726;28;20028;-87
2022/01/31 03:03:27;;;;;;;47.42;5.93;;;;;;;2.92;70.17;99650.38;5053774;28;20013;-87
2022/01/31 03:05:55;;;;;;;52.00;6.00;;;;;;;2.91;70.55;99633.16;5054022;28;20033;-87
2022/01/31 03:08:22;;;;;;;59.85;7.28;;;;;;;2.89;70.94;99635.84;5064645;28;20040;-87
2022/01/31 03:10:48;;;;;;;56.33;6.60;;;;;;;2.86;71.13;99617.84;5054152;28;20094;-88
2022/01/31 03:13:19;;;;;;;64.30;7.03;;;;;;;2.85;71.66;99616.13;5044728;28;20940;-86
2022/01/31 03:15:51;;;;;;;57.65;7.80;;;;;;;2.81;71.87;99595.66;5041860;28;20029;-86
2022/01/31 03:18:27;;;;;;;44.50;6.50;;;;;;;2.81;71.97;99582.72;5055521;28;20158;-86
2022/01/31 03:21:00;;;;;;;55.25;6.72;;;;;;;2.78;72.05;99546.59;5053841;28;20041;-86
2022/01/31 03:23:27;;;;;;;56.75;7.38;;;;;;;2.69;72.71;99534.94;5057260;28;20040;-86
2022/01/31 03:25:56;;;;;;;52.70;7.43;;;;;;;2.62;72.76;99531.78;5057286;28;20146;-87
2022/01/31 03:28:29;;;;;;;43.90;6.10;;;;;;;2.55;73.68;99535.56;5057410;28;20483;-87
2022/01/31 03:30:59;;;;;;;56.53;5.45;;;;;;;2.49;73.93;99527.28;5060529;28;20044;-86
2022/01/31 03:33:27;;;;;;;62.25;6.45;;;;;;;2.38;74.38;99532.94;5057064;28;20029;-88
2022/01/31 03:36:00;;;;;;;51.67;6.40;;;;;;;2.32;74.54;99528.03;5057204;28;20037;-88
2022/01/31 03:38:30;;;;;;;65.32;6.60;;;;;;;2.28;74.43;99523.91;5052086;28;20036;-87
2022/01/31 03:41:03;;;;;;;58.20;6.97;;;;;;;2.28;74.09;99514.41;5061367;28;20059;-86
2022/01/31 03:43:33;;;;;;;62.58;6.75;;;;;;;2.30;74.10;99491.91;5055544;28;20144;-87
2022/01/31 03:46:01;;;;;;;46.20;5.65;;;;;;;2.32;73.66;99471.13;5055447;28;20155;-87
2022/01/31 03:48:35;;;;;;;58.45;6.55;;;;;;;2.32;73.57;99460.78;5056447;28;20032;-86
2022/01/31 03:51:02;;;;;;;47.75;6.10;;;;;;;2.30;73.77;99450.53;5053073;28;20036;-87
2022/01/31 03:53:36;;;;;;;39.85;4.43;;;;;;;2.31;73.77;99431.50;5043401;28;20033;-87
2022/01/31 03:56:01;;;;;;;62.25;6.10;;;;;;;2.29;73.71;99415.19;5031931;28;20048;-88
2022/01/31 03:58:33;;;;;;;52.42;5.53;;;;;;;2.26;73.86;99409.34;5045640;28;20029;-87
2022/01/31 04:01:03;;;;;;;47.17;5.57;;;;;;;2.21;73.15;99406.97;5043690;28;20441;-87
2022/01/31 04:03:37;;;;;;;50.25;5.22;;;;;;;2.18;73.64;99399.34;5052814;28;20112;-87
2022/01/31 04:06:03;;;;;;;46.45;6.60;;;;;;;2.19;73.58;99390.72;5051993;28;20180;-86
2022/01/31 04:08:31;;;;;;;80.97;16.88;;;;;;;2.25;73.70;99392.16;5052262;28;20342;-86
2022/01/31 04:10:57;;;;;;;57.25;7.63;;;;;;;2.28;73.54;99389.44;5052486;28;20474;-86
2022/01/31 04:13:22;;;;;;;48.67;6.68;;;;;;;2.32;73.52;99385.78;5031126;28;20044;-86
2022/01/31 04:15:53;;;;;;;50.47;6.25;;;;;;;2.38;73.13;99363.03;5048551;28;20503;-86
2022/01/31 04:18:19;;;;;;;49.65;6.45;;;;;;;2.41;73.64;99362.03;5052496;28;20127;-86
2022/01/31 04:20:44;;;;;;;58.13;7.82;;;;;;;2.41;73.48;99375.84;5050759;28;20064;-86
2022/01/31 04:23:16;;;;;;;31.50;5.68;;;;;;;2.45;72.94;99368.78;5050765;28;20029;-85
2022/01/31 04:25:45;;;;;;;50.90;5.78;;;;;;;2.46;73.03;99360.09;5051111;28;20036;-86
2022/01/31 04:28:21;;;;;;;50.40;5.35;;;;;;;2.47;72.55;99354.00;5055071;28;20559;-86
2022/01/31 04:33:23;;;;;;;46.08;5.75;;;;;;;2.53;72.48;99343.34;5053023;28;20044;-87
2022/01/31 04:35:53;;;;;;;48.05;11.13;;;;;;;2.56;72.22;99350.97;5053664;28;20063;-87
2022/01/31 04:38:23;;;;;;;61.30;6.95;;;;;;;2.58;72.23;99351.72;5053427;28;20033;-86
2022/01/31 04:40:49;;;;;;;52.72;6.72;;;;;;;2.60;71.78;99336.97;5055166;28;20120;-86
2022/01/31 04:43:17;;;;;;;51.55;6.20;;;;;;;2.64;71.78;99322.13;5069064;28;20039;-87
2022/01/31 04:45:53;;;;;;;44.83;6.13;;;;;;;2.67;71.47;99315.03;5054788;28;20036;-88
2022/01/31 04:48:22;;;;;;;60.45;6.93;;;;;;;2.70;71.06;99308.03;5065036;28;20067;-88
2022/01/31 04:51:07;;;;;;;;;;;;;;;2.70;71.27;99293.31;5071688;28;20028;-87
2022/01/31 04:53:40;;;;;;;47.28;7.70;;;;;;;2.71;71.23;99289.84;5071147;28;19913;-88
2022/01/31 04:56:06;;;;;;;42.90;6.53;;;;;;;2.73;71.03;99289.75;5070738;28;20044;-87
2022/01/31 04:58:32;;;;;;;29.95;6.47;;;;;;;2.72;71.54;99275.16;5055652;28;20136;-87
2022/01/31 05:01:00;;;;;;;41.53;6.60;;;;;;;2.75;71.59;99259.47;5053089;28;20079;-88
2022/01/31 05:03:47;;;;;;;53.92;6.03;;;;;;;2.75;71.13;99246.53;5054695;28;20079;-87
2022/01/31 05:06:18;;;;;;;49.70;6.57;;;;;;;2.77;71.19;99229.16;5054289;28;20029;-86
2022/01/31 05:08:44;;;;;;;50.80;7.40;;;;;;;2.78;70.47;99223.91;5051755;28;20048;-86
2022/01/31 05:11:12;;;;;;;70.88;7.47;;;;;;;2.80;70.36;99209.13;5052687;28;20045;-86
2022/01/31 05:13:54;;;;;;;48.03;6.63;;;;;;;2.80;70.67;99197.94;5048290;28;20033;-87
2022/01/31 05:16:22;;;;;;;69.05;7.63;;;;;;;2.79;70.21;99193.69;5067391;28;20033;-86
2022/01/31 05:18:48;;;;;;;51.72;7.80;;;;;;;2.78;70.03;99169.56;5048976;28;20128;-87
2022/01/31 05:21:14;;;;;;;36.72;6.93;;;;;;;2.76;70.25;99173.13;5051848;28;20106;-86
2022/01/31 05:23:42;;;;;;;52.20;6.40;;;;;;;2.72;70.75;99159.53;5052506;28;20485;-87
2022/01/31 05:26:11;;;;;;;60.92;6.65;;;;;;;2.75;71.11;99145.59;5052103;28;20189;-87
2022/01/31 05:28:46;;;;;;;49.40;6.97;;;;;;;2.75;70.75;99132.66;5054553;28;20030;-87
2022/01/31 05:31:16;;;;;;;53.10;7.97;;;;;;;2.75;70.87;99130.06;5048812;28;20083;-86
2022/01/31 05:34:29;;;;;;;50.45;6.70;;;;;;;2.76;70.65;99123.97;5055470;28;20029;-86
2022/01/31 05:37:03;;;;;;;44.13;7.10;;;;;;;2.72;71.15;99118.09;5015756;28;20050;-87
2022/01/31 05:39:29;;;;;;;36.88;6.00;;;;;;;2.71;71.25;99118.19;5066914;28;20180;-86
2022/01/31 05:42:00;;;;;;;39.75;5.68;;;;;;;2.71;70.79;99113.00;5054398;28;20068;-85
2022/01/31 05:44:28;;;;;;;38.97;7.35;;;;;;;2.72;71.01;99104.34;5040264;28;20399;-86
2022/01/31 05:46:57;;;;;;;46.50;8.77;;;;;;;2.67;71.15;99097.66;5044340;28;20052;-87
2022/01/31 05:49:26;;;;;;;32.03;6.30;;;;;;;2.66;71.11;99090.78;5059016;28;20025;-87
2022/01/31 05:52:06;;;;;;;58.25;8.73;;;;;;;2.75;72.86;99086.91;5057760;28;20086;-85
2022/01/31 05:57:36;;;;;;;54.92;7.13;;;;;;;2.75;70.86;99057.59;5027690;28;20044;-87
2022/01/31 06:00:13;;;;;;;40.58;7.00;;;;;;;2.73;71.42;99051.66;5054519;28;20127;-87
2022/01/31 06:02:42;;;;;;;60.20;8.32;;;;;;;2.65;70.98;99033.97;5056632;28;20045;-88
2022/01/31 06:05:11;;;;;;;37.10;6.05;;;;;;;2.56;71.54;99019.78;5040196;28;20102;-88
2022/01/31 06:07:36;;;;;;;62.50;7.80;;;;;;;2.56;71.81;99016.34;5056186;28;20063;-87
2022/01/31 06:10:14;;;;;;;41.60;7.43;;;;;;;2.56;72.16;99016.34;5056584;28;20568;-86
2022/01/31 06:12:45;;;;;;;46.95;8.05;;;;;;;2.60;72.66;99005.75;5060075;28;20047;-88
2022/01/31 06:15:16;;;;;;;48.08;7.05;;;;;;;2.60;72.37;99010.94;5063601;28;20040;-88
2022/01/31 06:17:51;;;;;;;53.90;6.88;;;;;;;2.60;71.59;98999.75;5040230;28;20030;-89
2022/01/31 06:20:18;;;;;;;63.10;7.70;;;;;;;2.58;71.50;98989.47;5058918;28;20037;-88
2022/01/31 06:22:58;;;;;;;43.10;6.68;;;;;;;2.58;71.65;98992.06;5031784;28;20061;-89
2022/01/31 06:25:28;;;;;;;47.38;7.10;;;;;;;2.79;74.43;98984.88;5055537;28;20057;-88
2022/01/31 06:27:55;;;;;;;63.08;7.97;;;;;;;2.90;73.88;98986.84;5045796;28;20020;-87
2022/01/31 06:30:23;;;;;;;59.42;8.38;;;;;;;2.91;71.35;98984.16;5072969;28;20100;-87
2022/01/31 06:32:53;;;;;;;48.10;7.13;;;;;;;2.78;71.61;98967.69;5049010;28;20036;-88
2022/01/31 06:35:23;;;;;;;50.42;6.80;;;;;;;2.70;71.48;98963.81;5055705;28;20029;-89
2022/01/31 06:37:48;;;;;;;51.45;8.57;;;;;;;2.63;72.07;98966.78;5055831;28;20476;-88
2022/01/31 06:40:25;;;;;;;50.67;6.55;;;;;;;2.60;72.31;98960.94;5051252;28;20185;-89
2022/01/31 06:43:04;;;;;;;44.08;7.35;;;;;;;2.59;72.28;98957.50;5055878;28;20041;-87
2022/01/31 06:45:30;;;;;;;53.03;6.78;;;;;;;2.59;72.86;98949.72;5048113;28;20013;-89
2022/01/31 06:47:56;;;;;;;50.38;6.88;;;;;;;2.59;72.53;98941.13;5031160;28;20056;-88
2022/01/31 06:50:31;;;;;;;43.95;6.00;;;;;;;2.55;72.47;98935.31;5047698;28;20108;-88
2022/01/31 06:53:00;;;;;;;38.58;7.65;;;;;;;2.59;72.36;98920.44;5047448;28;20035;-87
2022/01/31 06:55:33;;;;;;;48.45;7.18;;;;;;;2.61;72.36;98919.44;5040288;28;20037;-87
2022/01/31 06:58:02;;;;;;;49.90;8.57;;;;;;;2.60;72.44;98920.38;5052098;28;20017;-87
2022/01/31 07:00:36;;;;;;;61.08;7.90;;;;;;;2.65;72.16;98915.75;5066304;28;20021;-87
2022/01/31 07:03:06;;;;;;;44.05;7.15;;;;;;;2.67;71.96;98908.75;5057791;28;20026;-87
2022/01/31 07:05:34;;;;;;;52.90;8.13;;;;;;;2.70;72.05;98914.66;5071875;28;20127;-88
2022/01/31 07:08:16;;;;;;;51.70;6.85;;;;;;;2.72;72.18;98912.84;5072283;28;20053;-88
2022/01/31 07:10:59;;;;;;;62.50;20.05;;;;;;;2.75;72.19;98908.31;5053748;28;20033;-87
2022/01/31 07:16:06;;;;;;;65.35;8.23;;;;;;;2.79;72.04;98907.22;5046967;28;20013;-89
2022/01/31 07:18:36;;;;;;;30.63;5.72;;;;;;;2.79;72.53;98903.81;5043352;28;20120;-87
2022/01/31 07:21:05;;;;;;;48.85;6.95;;;;;;;2.77;73.75;98908.22;5057173;28;20109;-88
2022/01/31 07:24:19;;;;;;;53.03;8.35;;;;;;;2.55;78.32;98917.19;5056461;28;20063;-87
2022/01/31 07:26:48;;;;;;;40.58;7.07;;;;;;;2.27;82.24;98904.97;5054989;28;20040;-87
2022/01/31 07:29:25;;;;;;;50.65;6.72;;;;;;;2.06;84.28;98898.41;5054248;28;20044;-88
2022/01/31 07:32:16;;;;;;;57.25;7.38;;;;;;;1.93;85.74;98899.06;5040158;28;20029;-88
2022/01/31 07:34:56;;;;;;;;;;;;;;;;;;;;;
2022/01/31 07:37:29;;;;;;;47.22;6.93;;;;;;;1.78;87.89;98892.16;5055504;28;20120;-88
2022/01/31 07:40:03;;;;;;;41.88;8.35;;;;;;;1.72;88.76;98883.88;5056796;28;20044;-88
2022/01/31 07:42:33;;;;;;;48.70;7.10;;;;;;;1.63;89.46;98878.28;5057303;28;20036;-87
2022/01/31 07:45:16;;;;;;;40.33;6.30;;;;;;;1.61;90.16;98872.38;5063011;28;20105;-87
2022/01/31 07:47:41;;;;;;;49.13;7.80;;;;;;;1.57;90.61;98863.09;5067680;28;20041;-89
2022/01/31 07:50:11;;;;;;;39.33;7.40;;;;;;;1.55;90.79;98864.94;5055441;28;20056;-88
2022/01/31 07:52:40;;;;;;;44.33;7.13;;;;;;;1.59;90.99;98858.69;5055483;28;20040;-87
2022/01/31 07:55:10;;;;;;;32.45;7.28;;;;;;;1.62;91.24;98849.94;5038122;28;20063;-87
2022/01/31 07:58:10;;;;;;;43.10;8.18;;;;;;;1.65;90.74;98853.19;5059972;28;20044;-89
2022/01/31 08:00:35;;;;;;;65.50;9.98;;;;;;;1.66;90.96;98854.03;5054339;28;20029;-89
2022/01/31 08:03:11;;;;;;;50.83;9.02;;;;;;;1.65;90.83;98840.28;5034658;28;20037;-87
2022/01/31 08:05:37;;;;;;;46.85;7.47;;;;;;;1.65;90.93;98835.13;5052501;28;20049;-87
2022/01/31 08:08:42;;;;;;;47.08;10.40;;;;;;;1.63;91.04;98820.59;5043898;28;20040;-89
2022/01/31 08:11:08;;;;;;;58.25;9.90;;;;;;;1.64;90.99;98817.97;5037854;28;20440;-87
2022/01/31 08:13:36;;;;;;;44.20;9.02;;;;;;;1.67;90.79;98816.97;5053729;28;20073;-88
2022/01/31 08:18:48;;;;;;;;;;;;;;;;;;;;;
2022/01/31 08:21:16;;;;;;;85.65;23.77;;;;;;;1.62;90.94;98793.94;5044430;28;20136;-89
2022/01/31 08:23:50;;;;;;;51.17;8.75;;;;;;;1.65;91.13;98790.38;5052178;28;20121;-88
2022/01/31 08:26:21;;;;;;;38.13;7.90;;;;;;;1.65;91.10;98787.78;5052286;28;20040;-87
2022/01/31 08:29:09;;;;;;;30.02;6.47;;;;;;;1.70;91.19;98771.09;5040471;28;20033;-88
2022/01/31 08:31:37;;;;;;;48.58;13.40;;;;;;;1.67;91.29;98768.72;5040728;28;20033;-87
2022/01/31 08:34:23;;;;;;;52.88;8.25;;;;;;;1.68;91.71;98756.63;5053413;28;20111;-87
2022/01/31 08:36:49;;;;;;;51.72;9.18;;;;;;;1.67;91.71;98752.38;5054834;28;20068;-88
2022/01/31 08:39:18;;;;;;;67.07;9.88;;;;;;;1.72;91.78;98746.94;5027819;28;20105;-88
2022/01/31 08:41:53;;;;;;;55.10;10.98;;;;;;;1.77;92.03;98739.75;5055772;28;20032;-89
2022/01/31 08:44:23;;;;;;;57.78;12.63;;;;;;;1.77;91.63;98740.59;5043023;28;20036;-88
2022/01/31 08:46:53;;;;;;;53.75;11.23;;;;;;;1.87;91.79;98733.16;5043022;28;20060;-92
2022/01/31 08:49:49;;;;;;;53.67;11.98;;;;;;;1.93;91.23;98735.41;5055084;28;20055;-89
2022/01/31 08:55:55;;;;;;;40.72;8.93;;;;;;;1.99;91.20;98709.19;4972362;28;20096;-89
2022/01/31 08:58:29;;;;;;;56.20;10.63;;;;;;;1.96;90.95;98703.38;4983783;28;20499;-87
2022/01/31 09:01:00;;;;;;;37.83;9.25;;;;;;;1.99;90.71;98708.38;4987933;28;20053;-89
2022/01/31 09:04:02;;;;;;;43.10;10.32;;;;;;;2.05;90.73;98702.88;4962665;28;20023;-87
2022/01/31 09:06:29;;;;;;;38.55;10.05;;;;;;;2.14;90.34;98697.16;4990437;28;20129;-89
2022/01/31 09:09:02;;;;;;;34.28;9.70;;;;;;;2.17;90.34;98690.03;4967555;28;20545;-87
2022/01/31 09:11:32;;;;;;;50.47;11.90;;;;;;;2.22;90.22;98691.53;4976020;28;20499;-87
2022/01/31 09:13:59;;;;;;;39.88;9.70;;;;;;;2.29;90.05;98678.16;4989843;28;20125;-87
2022/01/31 09:16:24;;;;;;;44.13;9.43;;;;;;;2.30;89.93;98671.22;4962351;28;20039;-89
2022/01/31 09:18:54;;;;;;;41.38;9.10;;;;;;;2.33;90.21;98679.63;4963601;28;20092;-88
2022/01/31 09:21:23;;;;;;;53.17;10.77;;;;;;;2.34;90.01;98670.97;4991453;28;20404;-89
2022/01/31 09:23:53;;;;;;;37.95;9.48;;;;;;;2.33;90.05;98668.44;4978407;28;20049;-87
2022/01/31 09:26:27;;;;;;;42.90;7.32;;;;;;;2.34;89.68;98663.22;4957255;28;20355;-89
2022/01/31 09:28:57;;;;;;;49.63;7.88;;;;;;;2.32;90.08;98662.44;4956950;28;20146;-89
2022/01/31 09:31:27;;;;;;;39.00;8.52;;;;;;;2.30;90.01;98655.69;4969391;28;20112;-87
2022/01/31 09:33:53;;;;;;;43.40;9.52;;;;;;;2.35;90.28;98657.09;5031027;28;20124;-89
2022/01/31 09:36:22;;;;;;;41.65;10.13;;;;;;;2.36;90.54;98650.19;5047727;28;20111;-87
2022/01/31 09:38:54;;;;;;;97.38;39.90;;;;;;;2.36;90.59;98650.19;5034200;28;20036;-88
2022/01/31 09:41:27;;;;;;;34.75;8.60;;;;;;;2.36;90.49;98643.25;5056093;28;20388;-88
2022/01/31 09:46:46;;;;;;;36.90;8.00;;;;;;;2.41;90.47;98646.41;5050551;28;20135;-88
2022/01/31 09:49:18;;;;;;;45.67;8.82;;;;;;;2.50;89.86;98641.59;5044940;28;20040;-89
2022/01/31 09:51:44;;;;;;;31.45;8.52;;;;;;;2.48;90.06;98639.09;5057103;28;20059;-88
2022/01/31 09:54:18;;;;;;;26.13;8.10;;;;;;;2.55;90.27;98640.38;5053966;28;20055;-88
2022/01/31 09:56:49;;;;;;;32.13;8.30;;;;;;;2.60;89.83;98645.28;5053903;28;20037;-87
2022/01/31 09:59:16;;;;;;;21.13;5.97;;;;;;;2.64;89.97;98647.59;5055522;28;20036;-87
2022/01/31 10:01:46;;;;;;;24.02;6.07;;;;;;;2.64;89.68;98646.78;5056736;28;20056;-88
2022/01/31 10:04:20;;;;;;;15.40;5.07;;;;;;;2.63;89.45;98650.25;5054367;28;20169;-88
2022/01/31 10:06:52;;;;;;;15.45;5.35;;;;;;;2.59;89.56;98649.59;5056902;28;20021;-89
2022/01/31 10:09:22;;;;;;;12.98;5.72;;;;;;;2.53;90.28;98646.59;5054544;28;20060;-88
2022/01/31 10:12:04;;;;;;;15.98;5.75;;;;;;;2.50;89.90;98646.78;5055336;28;20029;-89
2022/01/31 10:17:37;;;;;;;13.98;5.43;;;;;;;2.47;89.71;98640.00;5034764;28;20378;-88
2022/01/31 10:20:19;;;;;;;11.15;4.43;;;;;;;2.43;90.36;98634.19;5042188;28;20045;-89
2022/01/31 10:22:48;;;;;;;11.93;4.53;;;;;;;2.41;90.30;98632.63;5049979;28;20029;-90
2022/01/31 10:25:20;;;;;;;;;;;;;;;2.40;90.85;98634.38;5047498;28;20908;-88
2022/01/31 10:27:54;;;;;;;11.60;4.97;;;;;;;2.31;90.73;98623.78;5059999;28;20232;-88
2022/01/31 10:30:31;;;;;;;11.93;4.75;;;;;;;2.29;91.02;98626.44;5045078;28;20037;-87
2022/01/31 10:32:58;;;;;;;10.25;4.90;;;;;;;2.27;91.43;98622.28;5055412;28;20476;-89
2022/01/31 10:35:31;;;;;;;15.23;4.88;;;;;;;2.28;91.09;98629.13;5055892;28;20033;-88
2022/01/31 10:38:08;;;;;;;10.45;5.95;;;;;;;2.27;90.98;98633.47;5056594;28;20033;-86
2022/01/31 10:57:05;;;;;;;10.35;4.10;;;;;;;2.36;89.63;98627.72;5046860;28;20041;-89
2022/01/31 10:59:35;;;;;;;11.20;5.05;;;;;;;2.35;89.80;98636.41;5057656;28;20446;-88
2022/01/31 11:02:20;;;;;;;8.02;4.18;;;;;;;2.37;89.64;98632.00;5053867;28;20040;-87
2022/01/31 11:04:53;;;;;;;10.88;4.05;;;;;;;2.30;89.71;98633.28;5054251;28;20048;-86
2022/01/31 11:07:29;;;;;;;9.15;4.28;;;;;;;2.35;90.26;98630.41;5046509;28;20040;-87
2022/01/31 11:09:54;;;;;;;20.65;11.35;;;;;;;2.37;89.88;98631.13;5065608;28;20084;-88
2022/01/31 11:12:23;;;;;;;10.10;4.90;;;;;;;2.42;89.88;98627.38;5062458;28;20135;-87
2022/01/31 11:15:03;;;;;;;10.00;4.88;;;;;;;2.43;89.43;98615.25;5053701;28;20064;-88
2022/01/31 11:17:35;;;;;;;11.25;4.47;;;;;;;2.48;90.01;98618.38;5044317;28;20112;-88
2022/01/31 11:20:08;;;;;;;10.35;4.20;;;;;;;2.53;89.85;98621.53;5039415;28;20029;-89
2022/01/31 11:22:37;;;;;;;11.95;4.65;;;;;;;2.60;89.80;98614.25;5042566;28;20369;-89
2022/01/31 11:25:04;;;;;;;;;;;;;;;2.56;90.11;98615.34;5055094;28;20056;-89
2022/01/31 11:27:31;;;;;;;9.45;5.05;;;;;;;2.55;91.44;98613.69;5056538;28;19912;-88
2022/01/31 11:29:57;;;;;;;9.65;5.20;;;;;;;2.49;92.36;98612.31;5055081;28;20068;-88
2022/01/31 11:32:26;;;;;;;9.23;5.18;;;;;;;2.50;92.55;98613.13;5056543;28;20049;-88
2022/01/31 11:34:55;;;;;;;13.80;5.85;;;;;;;2.58;93.74;98608.31;5053665;28;20052;-88
2022/01/31 11:37:25;;;;;;;13.60;6.63;;;;;;;2.63;93.46;98617.47;5055183;28;20048;-88
2022/01/31 11:40:03;;;;;;;14.00;5.82;;;;;;;2.75;93.46;98615.88;5060476;28;20039;-88
2022/01/31 11:42:32;;;;;;;11.38;5.35;;;;;;;2.77;92.98;98614.00;5057791;28;20059;-88
2022/01/31 11:45:23;;;;;;;15.40;7.15;;;;;;;2.83;93.12;98608.47;5068715;28;20030;-89
2022/01/31 11:47:55;;;;;;;14.00;6.32;;;;;;;2.85;92.78;98608.38;5072033;28;20044;-89
2022/01/31 11:50:22;;;;;;;13.70;6.53;;;;;;;2.86;93.41;98616.06;5062593;28;20033;-89
2022/01/31 11:53:01;;;;;;;23.17;6.88;;;;;;;2.92;94.02;98609.63;5069952;28;20121;-88
2022/01/31 11:55:35;;;;;;;13.82;6.95;;;;;;;2.90;93.49;98611.50;5045194;28;20028;-88
2022/01/31 11:58:02;;;;;;;11.45;6.07;;;;;;;2.94;93.99;98612.16;5068404;28;20100;-90
2022/01/31 12:00:28;;;;;;;16.77;7.50;;;;;;;2.98;93.90;98611.84;5073945;28;20021;-89
2022/01/31 12:03:09;;;;;;;12.18;6.72;;;;;;;3.01;94.29;98610.84;5071633;28;20101;-89
2022/01/31 12:05:36;;;;;;;13.88;6.28;;;;;;;3.01;93.89;98623.78;5071361;28;20029;-88
2022/01/31 12:08:23;;;;;;;14.15;5.53;;;;;;;3.00;94.16;98620.34;5058899;28;20028;-89
2022/01/31 12:11:15;;;;;;;9.77;5.40;;;;;;;2.99;94.43;98617.88;5046423;28;20086;-88
2022/01/31 12:13:58;;;;;;;15.93;5.15;;;;;;;3.04;94.66;98631.34;5042088;28;20036;-87
2022/01/31 12:17:19;;;;;;;13.13;5.65;;;;;;;3.07;94.29;98613.84;5070648;28;20146;-88
2022/01/31 12:20:01;;;;;;;11.95;5.53;;;;;;;3.08;93.94;98618.13;4977829;28;20090;-88
2022/01/31 12:22:51;;;;;;;12.30;5.50;;;;;;;3.13;94.51;98617.81;4966848;28;20214;-88
2022/01/31 12:25:29;;;;;;;10.15;5.10;;;;;;;3.17;93.76;98615.88;4976116;28;20038;-90
2022/01/31 12:28:19;;;;;;;18.88;5.50;;;;;;;3.18;93.67;98610.59;4990230;28;20045;-90
2022/01/31 12:30:45;;;;;;;33.38;21.35;;;;;;;3.24;94.61;98606.78;4976750;28;20120;-89
2022/01/31 12:33:42;;;;;;;13.77;6.00;;;;;;;3.30;93.73;98624.50;4974950;28;20102;-89
2022/01/31 12:36:13;;;;;;;11.30;6.03;;;;;;;3.31;92.90;98615.81;5001421;28;20072;-88
2022/01/31 12:38:39;;;;;;;12.65;4.70;;;;;;;3.43;93.28;98614.19;4994867;28;20340;-88
2022/01/31 12:41:34;;;;;;;11.57;5.55;;;;;;;3.53;93.20;98607.50;4984513;28;20462;-88
2022/01/31 12:44:59;;;;;;;13.52;3.88;;;;;;;3.62;92.87;98601.69;5000159;28;20034;-88
2022/01/31 12:47:43;;;;;;;;;;;;;;;;;;;;;